createdAt,value
2018-05-06T00:04:37.401Z,46.42
2018-05-06T00:09:38.696Z,47.32
2018-05-06T00:14:39.999Z,47.70
2018-05-06T00:19:41.313Z,48.30
2018-05-06T00:24:43.830Z,49.10
2018-05-06T00:29:45.142Z,50.12
2018-05-06T00:34:47.193Z,50.92
2018-05-06T00:39:48.499Z,51.46
2018-05-06T00:44:49.828Z,51.34
2018-05-06T00:49:51.889Z,50.73
2018-05-06T00:54:53.201Z,50.39
2018-05-06T00:59:54.591Z,50.45
2018-05-06T01:04:55.901Z,50.77
2018-05-06T01:09:57.933Z,51.51
2018-05-06T01:15:00.163Z,52.05
2018-05-06T01:20:02.309Z,52.48
2018-05-06T01:25:03.647Z,52.73
2018-05-06T01:30:04.973Z,53.09
2018-05-06T01:35:06.277Z,53.37
2018-05-06T01:40:08.353Z,53.21
2018-05-06T01:45:09.654Z,53.68
2018-05-06T01:50:10.962Z,54.31
2018-05-06T01:55:12.286Z,54.99
2018-05-06T02:00:13.629Z,55.03
2018-05-06T02:05:14.953Z,54.17
2018-05-06T02:10:16.987Z,54.34
2018-05-06T02:15:18.296Z,54.09
2018-05-06T02:20:19.617Z,54.31
2018-05-06T02:25:20.942Z,54.51
2018-05-06T02:30:22.259Z,54.36
2018-05-06T02:35:23.566Z,54.06
2018-05-06T02:40:24.870Z,54.02
2018-05-06T02:45:26.188Z,53.72
2018-05-06T02:50:27.493Z,53.43
2018-05-06T02:55:28.800Z,53.99
2018-05-06T03:00:30.126Z,54.98
2018-05-06T03:05:31.619Z,55.09
2018-05-06T03:10:32.919Z,55.62
2018-05-06T03:15:34.994Z,56.51
2018-05-06T03:20:36.305Z,57.57
2018-05-06T03:25:37.643Z,57.35
2018-05-06T03:30:38.939Z,58.12
2018-05-06T03:35:40.242Z,58.29
2018-05-06T03:40:41.559Z,59.11
2018-05-06T03:45:43.060Z,59.15
2018-05-06T03:50:45.199Z,58.13
2018-05-06T03:55:46.526Z,57.87
2018-05-06T04:00:47.862Z,57.94
2018-05-06T04:05:50.041Z,58.08
2018-05-06T04:10:51.290Z,57.86
2018-05-06T04:15:52.588Z,57.64
2018-05-06T04:20:53.893Z,56.95
2018-05-06T04:25:55.295Z,57.03
2018-05-06T04:30:56.622Z,56.48
2018-05-06T04:35:58.666Z,55.98
2018-05-06T04:40:59.969Z,55.97
2018-05-06T04:46:01.289Z,55.89
2018-05-06T04:51:03.345Z,54.99
2018-05-06T04:56:04.659Z,54.73
2018-05-06T05:01:05.986Z,54.45
2018-05-06T05:06:08.038Z,53.92
2018-05-06T05:11:09.333Z,53.32
2018-05-06T05:16:10.626Z,53.43
2018-05-06T05:21:11.944Z,52.97
2018-05-06T05:26:13.983Z,52.53
2018-05-06T05:31:15.305Z,52.15
2018-05-06T05:36:16.618Z,51.04
2018-05-06T05:41:18.150Z,50.40
2018-05-06T05:46:19.507Z,49.70
2018-05-06T05:51:20.833Z,49.34
2018-05-06T05:56:22.138Z,48.12
2018-05-06T06:01:23.546Z,47.40
2018-05-06T06:06:24.921Z,47.13
2018-05-06T06:11:26.233Z,46.85
2018-05-06T06:16:27.534Z,46.60
2018-05-06T06:21:28.870Z,46.64
2018-05-06T06:26:30.182Z,45.50
2018-05-06T06:31:31.505Z,44.82
2018-05-06T06:36:32.811Z,44.78
2018-05-06T06:41:34.857Z,44.43
2018-05-06T06:46:36.150Z,44.16
2018-05-06T06:51:37.471Z,43.36
2018-05-06T06:56:38.786Z,43.32
2018-05-06T07:01:40.834Z,43.58
2018-05-06T07:06:42.650Z,42.90
2018-05-06T07:11:44.073Z,42.55
2018-05-06T07:16:45.533Z,42.34
2018-05-06T07:21:47.642Z,41.95
2018-05-06T07:26:48.985Z,41.77
2018-05-06T07:31:52.108Z,41.24
2018-05-06T07:36:54.137Z,41.06
2018-05-06T07:41:56.142Z,41.00
2018-05-06T07:46:57.513Z,40.69
2018-05-06T07:51:59.593Z,40.70
2018-05-06T07:57:00.989Z,41.13
2018-05-06T08:02:02.322Z,41.34
2018-05-06T08:07:03.626Z,40.99
2018-05-06T08:12:04.950Z,39.27
2018-05-06T08:17:06.299Z,40.62
2018-05-06T08:22:07.618Z,39.65
2018-05-06T08:27:09.078Z,39.09
2018-05-06T08:32:10.411Z,38.79
2018-05-06T08:37:11.731Z,38.55
2018-05-06T08:42:13.141Z,38.92
2018-05-06T08:47:14.722Z,37.52
2018-05-06T08:52:16.030Z,36.93
2018-05-06T08:57:17.322Z,36.74
2018-05-06T09:02:18.661Z,36.27
2018-05-06T09:07:19.970Z,35.45
2018-05-06T09:12:22.063Z,35.65
2018-05-06T09:17:23.369Z,34.86
2018-05-06T09:22:25.410Z,34.61
2018-05-06T09:27:26.721Z,34.41
2018-05-06T09:32:28.051Z,35.41
2018-05-06T09:37:30.146Z,34.49
2018-05-06T09:42:32.189Z,36.04
2018-05-06T09:47:33.590Z,34.01
2018-05-06T09:52:35.509Z,34.02
2018-05-06T09:57:37.826Z,33.80
2018-05-06T10:02:39.199Z,33.79
2018-05-06T10:07:41.320Z,34.50
2018-05-06T10:12:43.140Z,34.00
2018-05-06T10:17:44.547Z,33.96
2018-05-06T10:22:45.878Z,34.58
2018-05-06T10:27:47.222Z,33.94
2018-05-06T10:32:48.561Z,33.27
2018-05-06T10:37:50.545Z,33.63
2018-05-06T10:42:51.893Z,33.71
2018-05-06T10:47:53.655Z,33.36
2018-05-06T10:52:55.074Z,32.98
2018-05-06T10:57:56.644Z,33.06
2018-05-06T11:02:58.656Z,32.74
2018-05-06T11:08:00.449Z,33.06
2018-05-06T11:13:02.553Z,33.94
2018-05-06T11:18:04.423Z,33.03
2018-05-06T11:23:06.254Z,32.18
2018-05-06T11:28:08.303Z,32.08
2018-05-06T11:33:10.805Z,31.24
2018-05-06T11:38:12.661Z,32.97
2018-05-06T11:43:14.846Z,31.52
2018-05-06T11:48:16.257Z,31.29
2018-05-06T11:53:18.867Z,31.81
2018-05-06T11:58:21.100Z,33.18
2018-05-06T12:03:22.934Z,33.63
2018-05-06T12:08:24.251Z,32.33
2018-05-06T12:13:25.553Z,32.76
2018-05-06T12:18:26.874Z,33.18
2018-05-06T12:23:28.190Z,32.91
2018-05-06T12:28:29.498Z,31.78
2018-05-06T12:33:30.832Z,32.53
2018-05-06T12:38:32.149Z,32.43
2018-05-06T12:43:33.495Z,33.29
2018-05-06T12:48:35.546Z,33.14
2018-05-06T12:53:36.873Z,31.76
2018-05-06T12:58:38.211Z,32.68
2018-05-06T13:03:39.538Z,31.89
2018-05-06T13:08:40.870Z,31.52
2018-05-06T13:13:42.203Z,30.97
2018-05-06T13:18:43.536Z,31.32
2018-05-06T13:23:44.862Z,31.98
2018-05-06T13:28:46.166Z,31.17
2018-05-06T13:33:47.477Z,31.44
2018-05-06T13:38:48.853Z,31.78
2018-05-06T13:43:50.161Z,31.62
2018-05-06T13:48:51.473Z,31.18
2018-05-06T13:53:53.523Z,31.67
2018-05-06T13:58:54.851Z,31.56
2018-05-06T14:03:56.166Z,31.41
2018-05-06T14:08:58.250Z,31.03
2018-05-06T14:13:59.537Z,30.59
2018-05-06T14:19:00.863Z,29.97
2018-05-06T14:24:02.183Z,30.25
2018-05-06T14:29:03.486Z,30.86
2018-05-06T14:34:04.801Z,30.72
2018-05-06T14:39:06.861Z,31.02
2018-05-06T14:44:08.165Z,30.36
2018-05-06T14:49:09.530Z,31.29
2018-05-06T14:54:10.846Z,30.62
2018-05-06T14:59:12.205Z,30.54
2018-05-06T15:04:13.526Z,30.34
2018-05-06T15:09:14.904Z,30.37
2018-05-06T15:14:34.677Z,30.26
2018-05-06T15:19:36.726Z,30.01
2018-05-06T15:24:38.018Z,29.16
2018-05-06T15:29:39.347Z,28.88
2018-05-06T15:34:40.649Z,29.86
2018-05-06T15:39:42.875Z,30.04
2018-05-06T15:44:44.395Z,29.77
2018-05-06T15:49:45.970Z,29.12
2018-05-06T15:54:47.496Z,29.49
2018-05-06T15:59:49.066Z,29.54
2018-05-06T16:04:50.450Z,29.11
2018-05-06T16:09:52.568Z,29.38
2018-05-06T16:14:54.757Z,29.67
2018-05-06T16:19:56.083Z,29.56
2018-05-06T16:24:57.377Z,29.66
2018-05-06T16:29:58.682Z,29.57
2018-05-06T16:34:59.985Z,29.63
2018-05-06T16:40:01.317Z,29.31
2018-05-06T16:45:03.430Z,29.64
2018-05-06T16:50:04.757Z,29.91
2018-05-06T16:55:06.083Z,30.56
2018-05-06T17:00:07.464Z,30.73
2018-05-06T17:05:08.818Z,31.45
2018-05-06T17:10:10.122Z,31.90
2018-05-06T17:15:11.443Z,32.13
2018-05-06T17:20:12.782Z,32.47
2018-05-06T17:25:14.123Z,33.09
2018-05-06T17:30:15.454Z,33.36
2018-05-06T17:35:16.874Z,33.71
2018-05-06T17:40:18.206Z,33.97
2018-05-06T17:45:20.274Z,34.38
2018-05-06T17:50:21.590Z,34.68
2018-05-06T17:55:22.935Z,34.70
2018-05-06T18:00:24.298Z,34.85
2018-05-06T18:05:25.618Z,35.18
2018-05-06T18:10:26.951Z,35.66
2018-05-06T18:15:28.281Z,36.18
2018-05-06T18:20:29.590Z,36.76
2018-05-06T18:25:30.971Z,37.42
2018-05-06T18:30:32.322Z,38.16
2018-05-06T18:35:34.469Z,38.71
2018-05-06T18:40:35.832Z,39.06
2018-05-06T18:45:37.133Z,39.28
2018-05-06T18:50:38.561Z,40.11
2018-05-06T18:55:39.897Z,41.15
2018-05-06T19:00:41.232Z,40.94
2018-05-06T19:05:43.588Z,41.64
2018-05-06T19:10:44.882Z,41.18
2018-05-06T19:15:46.919Z,40.98
2018-05-06T19:20:48.250Z,41.78
2018-05-06T19:25:49.833Z,41.48
2018-05-06T19:30:51.166Z,42.00
2018-05-06T19:35:53.205Z,42.11
2018-05-06T19:40:54.533Z,42.47
2018-05-06T19:45:55.837Z,42.85
2018-05-06T19:50:57.881Z,43.39
2018-05-06T19:55:59.218Z,43.83
2018-05-06T20:01:00.569Z,44.12
2018-05-06T20:06:01.898Z,44.84
2018-05-06T20:11:04.098Z,44.70
2018-05-06T20:16:05.430Z,45.50
2018-05-06T20:21:06.834Z,45.64
2018-05-06T20:26:08.163Z,45.68
2018-05-06T20:31:09.469Z,46.20
2018-05-06T20:36:10.803Z,46.63
2018-05-06T20:41:12.121Z,47.05
2018-05-06T20:46:13.438Z,47.37
2018-05-06T20:51:14.947Z,48.07
2018-05-06T20:56:16.985Z,48.34
2018-05-06T21:01:18.346Z,48.42
2018-05-06T21:06:20.403Z,48.80
2018-05-06T21:11:21.703Z,48.75
2018-05-06T21:16:23.013Z,49.24
2018-05-06T21:21:24.321Z,49.72
2018-05-06T21:26:26.365Z,49.69
2018-05-06T21:31:27.659Z,49.80
2018-05-06T21:36:28.969Z,50.39
2018-05-06T21:41:31.537Z,50.99
2018-05-06T21:46:34.283Z,52.03
2018-05-06T21:51:35.715Z,52.77
2018-05-06T21:56:37.081Z,53.17
2018-05-06T22:01:38.406Z,53.39
2018-05-06T22:06:40.482Z,53.79
2018-05-06T22:11:41.800Z,53.96
2018-05-06T22:16:43.878Z,53.71
2018-05-06T22:21:45.202Z,53.58
2018-05-06T22:26:47.260Z,54.74
2018-05-06T22:31:48.617Z,55.13
2018-05-06T22:36:49.955Z,55.22
2018-05-06T22:41:51.256Z,55.75
2018-05-06T22:46:52.581Z,56.48
2018-05-06T22:51:54.629Z,56.64
2018-05-06T22:56:55.963Z,56.89
2018-05-06T23:01:58.029Z,56.81
2018-05-06T23:06:59.351Z,55.95
2018-05-06T23:12:01.397Z,56.71
2018-05-06T23:17:02.730Z,58.29
2018-05-06T23:22:04.104Z,59.05
2018-05-06T23:27:05.393Z,58.94
2018-05-06T23:32:06.721Z,59.13
2018-05-06T23:37:08.786Z,59.27
2018-05-06T23:42:10.110Z,58.84
2018-05-06T23:47:12.195Z,58.76
2018-05-06T23:52:13.518Z,58.44
2018-05-06T23:57:15.558Z,58.25
